createdAt,value
2023-12-09T00:00:45.519Z,61963.84
2023-12-09T00:03:13.696Z,61971.94
2023-12-09T00:05:41.818Z,61964.47
2023-12-09T00:08:09.916Z,61945.59
2023-12-09T00:10:38.933Z,61959.06
2023-12-09T00:13:06.993Z,61965.38
2023-12-09T00:15:35.057Z,61962.28
2023-12-09T00:18:05.319Z,61971.47
2023-12-09T00:20:33.388Z,61955.44
2023-12-09T00:23:01.404Z,61986.47
2023-12-09T00:25:29.402Z,61988.00
2023-12-09T00:27:57.490Z,61988.16
2023-12-09T00:30:25.597Z,61992.84
2023-12-09T00:32:53.854Z,61992.41
2023-12-09T00:35:23.661Z,61991.94
2023-12-09T00:37:52.037Z,61991.94
2023-12-09T00:40:20.446Z,61989.25
2023-12-09T00:42:48.948Z,61996.03
2023-12-09T00:45:17.319Z,61963.56
2023-12-09T00:47:45.504Z,61993.47
2023-12-09T00:50:13.602Z,61984.38
2023-12-09T00:52:42.977Z,61983.31
2023-12-09T00:55:12.648Z,61976.31
2023-12-09T00:57:40.697Z,61944.09
2023-12-09T01:00:10.240Z,61972.47
2023-12-09T01:02:40.206Z,61963.84
2023-12-09T01:05:09.028Z,61963.75
2023-12-09T01:07:37.097Z,61952.00
2023-12-09T01:10:07.610Z,61956.28
2023-12-09T01:12:35.695Z,61914.88
2023-12-09T01:15:04.489Z,61949.38
2023-12-09T01:17:32.616Z,61951.91
2023-12-09T01:20:00.781Z,61948.28
2023-12-09T01:22:29.291Z,61932.25
2023-12-09T01:24:57.568Z,61960.69
2023-12-09T01:27:27.129Z,61962.69
2023-12-09T01:29:55.241Z,61952.06
2023-12-09T01:32:23.359Z,61953.53
2023-12-09T01:34:51.448Z,61935.56
2023-12-09T01:37:19.524Z,61963.38
2023-12-09T01:39:47.702Z,61973.06
2023-12-09T01:42:16.190Z,61970.84
2023-12-09T01:44:45.960Z,61961.75
2023-12-09T01:47:14.220Z,61963.84
2023-12-09T01:49:43.635Z,61935.03
2023-12-09T01:52:11.951Z,61947.44
2023-12-09T01:54:39.991Z,61972.00
2023-12-09T01:57:08.633Z,61976.84
2023-12-09T01:59:36.711Z,61951.72
2023-12-09T02:02:06.998Z,61981.09
2023-12-09T02:04:35.160Z,61982.69
2023-12-09T02:07:04.023Z,61979.53
2023-12-09T02:09:33.398Z,61987.53
2023-12-09T02:12:08.654Z,61988.56
2023-12-09T02:14:42.132Z,61990.31
2023-12-09T02:17:15.584Z,61966.19
2023-12-09T02:19:44.644Z,61990.88
2023-12-09T02:22:12.658Z,61990.31
2023-12-09T02:24:42.355Z,61992.84
2023-12-09T02:27:13.776Z,61990.16
2023-12-09T02:29:51.719Z,61980.63
2023-12-09T02:32:22.681Z,61957.13
2023-12-09T02:34:52.009Z,61989.69
2023-12-09T02:37:21.892Z,61992.94
2023-12-09T02:39:51.848Z,61992.31
2023-12-09T02:42:20.862Z,61993.94
2023-12-09T02:44:50.484Z,61965.13
2023-12-09T02:47:18.569Z,61966.19
2023-12-09T02:49:47.012Z,61985.47
2023-12-09T02:52:15.086Z,61990.31
2023-12-09T02:54:43.109Z,61960.34
2023-12-09T02:57:12.563Z,61994.47
2023-12-09T02:59:40.943Z,61989.78
2023-12-09T03:02:09.008Z,61993.47
2023-12-09T03:04:37.071Z,62001.03
2023-12-09T03:07:05.438Z,61994.56
2023-12-09T03:09:33.462Z,62002.16
2023-12-09T03:12:01.510Z,62007.03
2023-12-09T03:14:31.285Z,62010.25
2023-12-09T03:16:59.331Z,62003.25
2023-12-09T03:19:27.831Z,62016.19
2023-12-09T03:21:55.940Z,62012.97
2023-12-09T03:24:23.970Z,62016.56
2023-12-09T03:26:52.511Z,62011.88
2023-12-09T03:29:20.641Z,62012.97
2023-12-09T03:31:50.950Z,62013.34
2023-12-09T03:34:19.181Z,62012.88
2023-12-09T03:36:47.317Z,62007.56
2023-12-09T03:39:15.556Z,62013.34
2023-12-09T03:41:43.561Z,61980.28
2023-12-09T03:44:11.618Z,61979.22
2023-12-09T03:46:39.630Z,62003.78
2023-12-09T03:49:09.152Z,61979.66
2023-12-09T03:51:37.624Z,62004.78
2023-12-09T03:54:06.042Z,61975.44
2023-12-09T03:56:34.095Z,62001.63
2023-12-09T03:59:02.573Z,62005.41
2023-12-09T04:01:31.170Z,62009.09
2023-12-09T04:03:59.380Z,61985.66
2023-12-09T04:06:28.902Z,62014.03
2023-12-09T04:08:57.041Z,62022.53
2023-12-09T04:11:25.463Z,61988.91
2023-12-09T04:13:53.501Z,62016.03
2023-12-09T04:16:21.577Z,62013.97
2023-12-09T04:18:49.822Z,62020.91
2023-12-09T04:21:19.344Z,61986.16
2023-12-09T04:23:49.115Z,61989.91
2023-12-09T04:26:17.156Z,62012.81
2023-12-09T04:28:45.181Z,62010.66
2023-12-09T04:31:13.211Z,61998.88
2023-12-09T04:33:42.031Z,61982.91
2023-12-09T04:36:10.632Z,62008.09
2023-12-09T04:38:38.709Z,62014.50
2023-12-09T04:41:08.311Z,62015.56
2023-12-09T04:43:36.322Z,62016.19
2023-12-09T04:46:04.594Z,62022.53
2023-12-09T04:48:32.690Z,62019.97
2023-12-09T04:51:00.775Z,62016.19
2023-12-09T04:53:28.799Z,62021.44
2023-12-09T04:55:56.776Z,62018.72
2023-12-09T04:58:26.382Z,62016.13
2023-12-09T05:00:54.397Z,61987.75
2023-12-09T05:03:22.730Z,61988.38
2023-12-09T05:05:50.848Z,62021.97
2023-12-09T05:08:19.339Z,62011.25
2023-12-09T05:10:47.511Z,62014.97
2023-12-09T05:13:15.526Z,62018.19
2023-12-09T05:15:45.514Z,62013.97
2023-12-09T05:18:13.897Z,62014.41
2023-12-09T05:20:42.259Z,62013.50
2023-12-09T05:23:10.273Z,62011.88
2023-12-09T05:25:38.284Z,62012.97
2023-12-09T05:28:06.976Z,62017.75
2023-12-09T05:30:35.116Z,62015.03
2023-12-09T05:33:05.227Z,62004.88
2023-12-09T05:35:33.380Z,62008.66
2023-12-09T05:38:01.389Z,62013.41
2023-12-09T05:40:30.880Z,61984.00
2023-12-09T05:43:00.027Z,62010.25
2023-12-09T05:45:28.073Z,62009.09
2023-12-09T05:47:56.195Z,62008.66
2023-12-09T05:50:25.770Z,62014.50
2023-12-09T05:52:53.808Z,62002.16
2023-12-09T05:55:21.907Z,62005.94
2023-12-09T05:57:49.924Z,62009.09
2023-12-09T06:00:18.283Z,62012.88
2023-12-09T06:02:46.339Z,62016.03
2023-12-09T06:05:14.392Z,62008.09
2023-12-09T06:07:43.818Z,62006.47
2023-12-09T06:10:14.443Z,62000.03
2023-12-09T06:12:43.581Z,62004.78
2023-12-09T06:15:13.300Z,61986.47
2023-12-09T06:17:41.498Z,61992.47
2023-12-09T06:20:10.776Z,61995.09
2023-12-09T06:22:38.989Z,61983.78
2023-12-09T06:25:13.109Z,61986.00
2023-12-09T06:27:41.261Z,61986.00
2023-12-09T06:30:11.961Z,61955.50
2023-12-09T06:32:40.520Z,61983.16
2023-12-09T06:35:09.237Z,61946.88
2023-12-09T06:37:37.341Z,61970.31
2023-12-09T06:40:06.098Z,61961.75
2023-12-09T06:42:38.416Z,61969.75
2023-12-09T06:45:07.848Z,61963.84
2023-12-09T06:47:36.349Z,61967.69
2023-12-09T06:50:04.738Z,61974.63
2023-12-09T06:52:32.829Z,61970.94
2023-12-09T06:55:00.848Z,61975.22
2023-12-09T06:57:29.030Z,61971.47
2023-12-09T06:59:58.691Z,61950.13
2023-12-09T07:02:33.929Z,61973.06
2023-12-09T07:05:09.003Z,61982.22
2023-12-09T07:07:37.487Z,61992.94
2023-12-09T07:10:06.856Z,61964.59
2023-12-09T07:12:34.942Z,61999.88
2023-12-09T07:15:06.675Z,61996.25
2023-12-09T07:17:34.897Z,61998.94
2023-12-09T07:20:02.957Z,61975.91
2023-12-09T07:22:31.021Z,62006.94
2023-12-09T07:25:01.875Z,62005.41
2023-12-09T07:27:30.096Z,62005.94
2023-12-09T07:29:58.269Z,61973.81
2023-12-09T07:32:28.624Z,61996.78
2023-12-09T07:34:57.571Z,61996.78
2023-12-09T07:37:26.084Z,62001.56
2023-12-09T07:39:54.272Z,62006.88
2023-12-09T07:42:22.479Z,62004.78
2023-12-09T07:44:50.710Z,62009.72
2023-12-09T07:47:18.751Z,62025.28
2023-12-09T07:49:48.274Z,62021.03
2023-12-09T07:52:16.589Z,62001.22
2023-12-09T07:54:44.707Z,62027.50
2023-12-09T07:57:12.850Z,62036.63
2023-12-09T07:59:40.847Z,62012.63
2023-12-09T08:02:08.833Z,62038.28
2023-12-09T08:04:50.540Z,62047.91
2023-12-09T08:07:18.599Z,62049.47
2023-12-09T08:09:46.662Z,62050.69
2023-12-09T08:12:14.813Z,62056.03
2023-12-09T08:14:42.908Z,62056.63
2023-12-09T08:17:11.150Z,62059.84
2023-12-09T08:19:40.040Z,62065.09
2023-12-09T08:22:09.766Z,62063.00
2023-12-09T08:24:37.853Z,62066.81
2023-12-09T08:27:07.373Z,62067.97
2023-12-09T08:29:36.591Z,62072.19
2023-12-09T08:32:05.224Z,62071.19
2023-12-09T08:34:33.362Z,62050.81
2023-12-09T08:37:01.488Z,62068.97
2023-12-09T08:39:31.897Z,62067.97
2023-12-09T08:42:00.011Z,62062.56
2023-12-09T08:44:28.041Z,62065.81
2023-12-09T08:46:56.078Z,62069.56
2023-12-09T08:49:24.265Z,62044.97
2023-12-09T08:51:52.517Z,62067.34
2023-12-09T08:54:20.516Z,62073.88
2023-12-09T08:56:49.980Z,62071.19
2023-12-09T08:59:18.078Z,62079.81
2023-12-09T09:01:46.249Z,62085.22
2023-12-09T09:04:14.448Z,62088.38
2023-12-09T09:06:42.591Z,62089.53
2023-12-09T09:09:12.990Z,62091.69
2023-12-09T09:11:41.059Z,62094.31
2023-12-09T09:14:10.684Z,62090.53
2023-12-09T09:16:39.148Z,62086.28
2023-12-09T09:19:07.667Z,62079.81
2023-12-09T09:21:35.975Z,62094.41
2023-12-09T09:24:04.124Z,62092.22
2023-12-09T09:26:32.172Z,62090.53
2023-12-09T09:29:00.341Z,62062.75
2023-12-09T09:31:30.220Z,62093.69
2023-12-09T09:33:58.559Z,62084.66
2023-12-09T09:36:26.812Z,62099.72
2023-12-09T09:38:54.884Z,62068.69
2023-12-09T09:41:25.121Z,62094.84
2023-12-09T09:44:00.540Z,62096.53
2023-12-09T09:46:30.948Z,62094.94
2023-12-09T09:48:59.570Z,62090.53
2023-12-09T09:51:32.235Z,62071.84
2023-12-09T09:54:11.184Z,62099.16
2023-12-09T09:56:40.071Z,62090.59
2023-12-09T09:59:08.361Z,62094.41
2023-12-09T10:01:39.179Z,62090.53
2023-12-09T10:04:07.877Z,62077.13
2023-12-09T10:06:37.202Z,62071.72
2023-12-09T10:09:06.128Z,62069.03
2023-12-09T10:11:34.247Z,62067.97
2023-12-09T10:14:02.308Z,62067.97
2023-12-09T10:16:30.481Z,62043.25
2023-12-09T10:19:00.012Z,62067.34
2023-12-09T10:21:28.149Z,62071.66
2023-12-09T10:23:57.237Z,62085.22
2023-12-09T10:26:25.338Z,62060.06
2023-12-09T10:28:53.439Z,62101.78
2023-12-09T10:31:21.510Z,62110.97
2023-12-09T10:33:50.616Z,62116.50
2023-12-09T10:36:20.528Z,62126.16
2023-12-09T10:38:48.643Z,62124.47
2023-12-09T10:41:17.468Z,62134.16
2023-12-09T10:43:45.553Z,62137.41
2023-12-09T10:46:14.880Z,62133.78
2023-12-09T10:48:43.904Z,62139.63
2023-12-09T10:51:12.148Z,62151.47
2023-12-09T10:53:42.618Z,62162.25
2023-12-09T10:56:11.624Z,62168.19
2023-12-09T10:58:40.687Z,62182.78
2023-12-09T11:01:10.394Z,62189.25
2023-12-09T11:03:39.541Z,62184.53
2023-12-09T11:06:09.144Z,62180.69
2023-12-09T11:08:39.005Z,62184.53
2023-12-09T11:11:09.476Z,62185.53
2023-12-09T11:13:38.830Z,62187.09
2023-12-09T11:16:10.517Z,62197.28
2023-12-09T11:18:48.188Z,62192.09
2023-12-09T11:21:17.465Z,62195.31
2023-12-09T11:23:47.409Z,62198.56
2023-12-09T11:26:19.501Z,62201.81
2023-12-09T11:29:01.749Z,62212.47
2023-12-09T11:31:37.644Z,62192.81
2023-12-09T11:34:07.888Z,62234.75
2023-12-09T11:36:39.794Z,62238.53
2023-12-09T11:39:11.262Z,62242.72
2023-12-09T11:41:41.742Z,62232.06
2023-12-09T11:44:10.800Z,62238.41
2023-12-09T11:46:40.099Z,62235.84
2023-12-09T11:49:09.825Z,62241.78
2023-12-09T11:51:40.139Z,62248.66
2023-12-09T11:54:10.187Z,62239.06
2023-12-09T11:56:40.733Z,62237.94
2023-12-09T11:59:09.295Z,62227.75
2023-12-09T12:01:38.384Z,62224.34
2023-12-09T12:04:06.899Z,62221.72
2023-12-09T12:06:35.151Z,62226.50
2023-12-09T12:09:04.706Z,62224.97
2023-12-09T12:11:35.277Z,62217.47
2023-12-09T12:14:05.871Z,62218.56
2023-12-09T12:16:34.214Z,62206.13
2023-12-09T12:19:02.316Z,62206.13
2023-12-09T12:23:58.906Z,62202.88
2023-12-09T12:26:26.975Z,62203.91
2023-12-09T12:28:54.990Z,62194.25
2023-12-09T12:31:25.436Z,62184.72
2023-12-09T12:33:53.660Z,62219.03
2023-12-09T12:36:22.050Z,62212.59
2023-12-09T12:38:52.044Z,62214.63
2023-12-09T12:41:20.249Z,62202.75
2023-12-09T12:43:48.305Z,62206.13
2023-12-09T12:46:21.158Z,62215.84
2023-12-09T12:48:50.727Z,62211.53
2023-12-09T12:51:18.940Z,62226.50
2023-12-09T12:53:48.072Z,62212.06
2023-12-09T12:56:16.111Z,62207.75
2023-12-09T12:58:44.424Z,62214.22
2023-12-09T13:01:12.579Z,62211.41
2023-12-09T13:03:40.742Z,62203.97
2023-12-09T13:06:12.116Z,62191.00
2023-12-09T13:08:41.139Z,62178.06
2023-12-09T13:11:09.272Z,62176.44
2023-12-09T13:13:37.315Z,62174.19
2023-12-09T13:16:06.112Z,62131.28
2023-12-09T13:18:34.278Z,62138.63
2023-12-09T13:21:03.057Z,62119.13
2023-12-09T13:23:32.486Z,62116.44
2023-12-09T13:26:01.383Z,62072.38
2023-12-09T13:28:29.886Z,62087.28
2023-12-09T13:30:57.927Z,62089.53
2023-12-09T13:33:26.127Z,62086.16
2023-12-09T13:35:54.406Z,62066.81
2023-12-09T13:38:22.443Z,62057.63
2023-12-09T13:40:51.836Z,62053.41
2023-12-09T13:43:19.919Z,62042.47
2023-12-09T13:45:48.007Z,62002.28
2023-12-09T13:48:16.350Z,62027.44
2023-12-09T13:50:45.133Z,62024.19
2023-12-09T13:53:13.332Z,62008.66
2023-12-09T13:55:41.400Z,62000.56
2023-12-09T13:58:10.895Z,62015.56
2023-12-09T14:00:39.006Z,61981.28
2023-12-09T14:03:07.286Z,62010.72
2023-12-09T14:05:35.430Z,62000.56
2023-12-09T14:08:03.549Z,62012.81
2023-12-09T14:10:31.616Z,62001.56
2023-12-09T14:12:59.622Z,62009.56
2023-12-09T14:15:29.338Z,61976.53
2023-12-09T14:17:57.506Z,61983.84
2023-12-09T14:20:26.291Z,61992.94
2023-12-09T14:22:54.322Z,61993.47
2023-12-09T14:25:22.506Z,61993.94
2023-12-09T14:27:50.727Z,61960.88
2023-12-09T14:30:18.970Z,61961.97
2023-12-09T14:32:48.868Z,61982.75
2023-12-09T14:35:17.407Z,61975.22
2023-12-09T14:37:49.321Z,61955.50
2023-12-09T14:40:17.919Z,61959.75
2023-12-09T14:42:46.591Z,61991.41
2023-12-09T14:45:15.271Z,61989.69
2023-12-09T14:47:53.461Z,61992.84
2023-12-09T14:50:28.009Z,61979.53
2023-12-09T14:52:56.135Z,61977.38
2023-12-09T14:55:24.191Z,62005.88
2023-12-09T14:57:52.840Z,61996.44
2023-12-09T15:00:21.324Z,62037.75
2023-12-09T15:02:49.373Z,62038.28
2023-12-09T15:05:17.764Z,62042.53
2023-12-09T15:07:47.351Z,62059.31
2023-12-09T15:10:15.716Z,62078.66
2023-12-09T15:12:43.812Z,62048.13
2023-12-09T15:15:12.690Z,62080.28
2023-12-09T15:17:40.985Z,62081.75
2023-12-09T15:20:11.196Z,62068.97
2023-12-09T15:22:40.809Z,62087.91
2023-12-09T15:25:11.094Z,62077.03
2023-12-09T15:27:39.448Z,62101.88
2023-12-09T15:30:09.601Z,62113.72
2023-12-09T15:32:39.760Z,62106.81
2023-12-09T15:35:08.576Z,62117.03
2023-12-09T15:37:36.886Z,62138.00
2023-12-09T15:40:10.255Z,62132.16
2023-12-09T15:42:39.988Z,62141.31
2023-12-09T15:45:09.137Z,62133.78
2023-12-09T15:47:37.887Z,62132.09
2023-12-09T15:50:07.599Z,62110.75
2023-12-09T15:52:35.664Z,62146.13
2023-12-09T15:55:03.770Z,62141.31
2023-12-09T15:57:31.934Z,62117.69
2023-12-09T16:00:01.368Z,62147.84
2023-12-09T16:02:29.517Z,62152.06
2023-12-09T16:04:57.985Z,62136.47
2023-12-09T16:07:26.357Z,62147.19
2023-12-09T16:09:58.037Z,62136.47
2023-12-09T16:12:27.232Z,62159.56
2023-12-09T16:14:55.498Z,62152.13
2023-12-09T16:17:25.045Z,62119.41
2023-12-09T16:19:53.162Z,62165.63
2023-12-09T16:22:21.613Z,62184.47
2023-12-09T16:24:49.750Z,62164.00
2023-12-09T16:27:18.137Z,62169.41
2023-12-09T16:29:46.349Z,62188.69
2023-12-09T16:32:14.449Z,62186.06
2023-12-09T16:34:44.040Z,62186.16
2023-12-09T16:37:12.373Z,62187.25
2023-12-09T16:39:40.436Z,62209.91
2023-12-09T16:42:08.706Z,62212.06
2023-12-09T16:44:36.794Z,62202.88
2023-12-09T16:47:05.295Z,62207.13
2023-12-09T16:49:34.079Z,62197.97
2023-12-09T16:52:03.639Z,62211.59
2023-12-09T16:54:31.864Z,62222.31
2023-12-09T16:57:00.046Z,62227.13
2023-12-09T16:59:28.128Z,62199.81
2023-12-09T17:01:56.159Z,62225.03
2023-12-09T17:04:24.996Z,62232.59
2023-12-09T17:06:54.552Z,62234.22
2023-12-09T17:09:24.326Z,62239.53
2023-12-09T17:11:54.139Z,62233.13
2023-12-09T17:14:22.639Z,62229.34
2023-12-09T17:16:51.204Z,62242.25
2023-12-09T17:19:19.386Z,62242.88
2023-12-09T17:21:47.720Z,62233.13
2023-12-09T17:24:15.974Z,62257.84
2023-12-09T17:26:45.416Z,62243.41
2023-12-09T17:29:13.535Z,62243.94
2023-12-09T17:31:44.240Z,62248.66
2023-12-09T17:34:13.928Z,62248.81
2023-12-09T17:36:42.110Z,62228.97
2023-12-09T17:39:11.731Z,62257.44
2023-12-09T17:41:40.061Z,62254.19
2023-12-09T17:44:10.989Z,62259.06
2023-12-09T17:46:39.124Z,62279.06
2023-12-09T17:49:07.669Z,62279.06
2023-12-09T17:51:36.341Z,62249.50
2023-12-09T17:54:05.722Z,62272.03
2023-12-09T17:56:34.118Z,62274.19
2023-12-09T17:59:02.652Z,62268.25
2023-12-09T18:01:32.147Z,62270.88
2023-12-09T18:04:01.072Z,62268.78
2023-12-09T18:06:30.281Z,62276.84
2023-12-09T18:08:58.722Z,62271.41
2023-12-09T18:11:26.777Z,62274.66
2023-12-09T18:13:54.931Z,62274.19
2023-12-09T18:16:23.274Z,62276.91
2023-12-09T18:18:52.861Z,62285.53
2023-12-09T18:21:24.978Z,62288.78
2023-12-09T18:23:54.383Z,62297.28
2023-12-09T18:26:22.761Z,62303.31
2023-12-09T18:28:50.950Z,62297.97
2023-12-09T18:31:35.229Z,62293.66
2023-12-09T18:34:04.966Z,62289.31
2023-12-09T18:36:33.096Z,62285.47
2023-12-09T18:39:01.346Z,62292.44
2023-12-09T18:41:29.547Z,62257.63
2023-12-09T18:43:57.601Z,62261.84
2023-12-09T18:46:27.235Z,62286.63
2023-12-09T18:48:55.414Z,62247.88
2023-12-09T18:51:24.972Z,62277.91
2023-12-09T18:53:53.120Z,62289.31
2023-12-09T18:56:25.161Z,62270.94
2023-12-09T18:58:53.260Z,62264.09
2023-12-09T19:01:21.393Z,62288.09
2023-12-09T19:03:49.711Z,62288.16
2023-12-09T19:06:18.033Z,62283.38
2023-12-09T19:08:47.473Z,62289.88
2023-12-09T19:11:15.875Z,62282.78
2023-12-09T19:13:43.954Z,62279.06
2023-12-09T19:16:13.873Z,62252.19
2023-12-09T19:18:42.714Z,62282.22
2023-12-09T19:21:10.852Z,62280.13
2023-12-09T19:23:38.944Z,62277.31
2023-12-09T19:26:08.412Z,62266.63
2023-12-09T19:28:37.072Z,62267.66
2023-12-09T19:31:05.297Z,62258.00
2023-12-09T19:33:33.400Z,62243.50
2023-12-09T19:36:01.657Z,62261.69
2023-12-09T19:38:29.736Z,62255.81
2023-12-09T19:40:57.802Z,62256.91
2023-12-09T19:43:27.255Z,62268.72
2023-12-09T19:45:55.340Z,62266.63
2023-12-09T19:48:23.604Z,62262.31
2023-12-09T19:50:51.728Z,62252.06
2023-12-09T19:53:20.126Z,62247.66
2023-12-09T19:55:48.152Z,62241.78
2023-12-09T19:58:17.044Z,62238.53
2023-12-09T20:00:46.521Z,62209.00
2023-12-09T20:03:15.272Z,62230.97
2023-12-09T20:05:43.460Z,62195.56
2023-12-09T20:08:11.545Z,62229.88
2023-12-09T20:10:39.559Z,62201.97
2023-12-09T20:13:07.649Z,62230.38
2023-12-09T20:15:35.965Z,62236.25
2023-12-09T20:18:05.524Z,62230.44
2023-12-09T20:20:33.638Z,62198.19
2023-12-09T20:23:01.715Z,62200.28
2023-12-09T20:25:29.898Z,62229.75
2023-12-09T20:27:58.286Z,62235.69
2023-12-09T20:30:26.464Z,62223.97
2023-12-09T20:32:54.605Z,62200.34
2023-12-09T20:35:24.458Z,62224.50
2023-12-09T20:37:52.496Z,62223.41
2023-12-09T20:40:20.582Z,62201.44
2023-12-09T20:42:50.254Z,62234.22
2023-12-09T20:45:18.363Z,62234.16
2023-12-09T20:47:46.596Z,62234.22
2023-12-09T20:50:15.038Z,62238.47
2023-12-09T20:52:44.406Z,62230.97
2023-12-09T20:55:13.927Z,62233.13
2023-12-09T20:57:42.009Z,62234.22
2023-12-09T21:00:11.620Z,62231.50
2023-12-09T21:02:40.811Z,62233.13
2023-12-09T21:05:09.320Z,62237.47
2023-12-09T21:07:37.918Z,62231.50
2023-12-09T21:10:08.511Z,62228.75
2023-12-09T21:12:36.628Z,62216.25
2023-12-09T21:15:04.944Z,62213.69
2023-12-09T21:17:35.340Z,62212.47
2023-12-09T21:20:03.828Z,62203.97
2023-12-09T21:22:31.918Z,62208.16
2023-12-09T21:25:02.184Z,62195.88
2023-12-09T21:27:31.762Z,62201.28
2023-12-09T21:30:01.159Z,62171.81
2023-12-09T21:32:29.616Z,62196.41
2023-12-09T21:34:57.909Z,62203.81
2023-12-09T21:37:26.125Z,62168.97
2023-12-09T21:39:54.836Z,62178.69
2023-12-09T21:42:24.359Z,62198.56
2023-12-09T21:44:55.241Z,62190.41
2023-12-09T21:47:24.924Z,62190.53
2023-12-09T21:49:53.286Z,62193.09
2023-12-09T21:52:21.788Z,62200.72
2023-12-09T21:54:51.162Z,62201.69
2023-12-09T21:57:20.490Z,62199.66
2023-12-09T21:59:48.645Z,62194.25
2023-12-09T22:02:18.101Z,62183.00
2023-12-09T22:04:47.977Z,62206.53
2023-12-09T22:07:16.248Z,62199.13
2023-12-09T22:09:44.364Z,62190.41
2023-12-09T22:12:12.434Z,62198.56
2023-12-09T22:14:40.612Z,62182.38
2023-12-09T22:17:08.801Z,62182.31
2023-12-09T22:19:39.236Z,62148.00
2023-12-09T22:22:07.267Z,62142.13
2023-12-09T22:24:35.275Z,62168.88
2023-12-09T22:27:05.085Z,62168.34
2023-12-09T22:29:34.766Z,62181.16
2023-12-09T22:32:02.976Z,62169.41
2023-12-09T22:34:31.131Z,62173.06
2023-12-09T22:37:00.674Z,62176.97
2023-12-09T22:39:28.990Z,62180.16
2023-12-09T22:41:57.096Z,62186.00
2023-12-09T22:44:25.159Z,62167.25
2023-12-09T22:46:53.332Z,62165.63
2023-12-09T22:49:21.458Z,62185.06
2023-12-09T22:51:49.588Z,62153.94
2023-12-09T22:54:19.077Z,62182.38
2023-12-09T22:56:47.122Z,62176.97
2023-12-09T22:59:15.188Z,62154.41
2023-12-09T23:01:45.531Z,62175.34
2023-12-09T23:04:13.742Z,62141.00
2023-12-09T23:06:43.654Z,62169.28
2023-12-09T23:09:11.757Z,62154.16
2023-12-09T23:11:41.199Z,62158.09
2023-12-09T23:14:10.571Z,62150.53
2023-12-09T23:16:38.710Z,62154.28
2023-12-09T23:19:07.090Z,62138.63
2023-12-09T23:21:35.538Z,62142.97
2023-12-09T23:24:03.676Z,62120.38
2023-12-09T23:26:31.718Z,62127.75
2023-12-09T23:29:01.191Z,62127.28
2023-12-09T23:31:35.974Z,62126.69
2023-12-09T23:34:10.630Z,62092.88
2023-12-09T23:36:38.935Z,62120.66
2023-12-09T23:39:07.131Z,62116.44
2023-12-09T23:41:35.180Z,62093.97
2023-12-09T23:44:04.645Z,62110.97
2023-12-09T23:46:32.770Z,62117.50
2023-12-09T23:49:01.268Z,62120.75
2023-12-09T23:51:29.412Z,62118.13
2023-12-09T23:53:57.591Z,62132.53
2023-12-09T23:56:25.654Z,62126.69
2023-12-09T23:58:53.682Z,62112.72
